• Join FlightAware (Why Join?)
  • Login
  • US Flag 
07:17PM EDT


 

Airport Tracker/Info


-or-


 

Live Flight TrackerFlight Track Log ✈ UAL1248 ✈ 17-Oct-2013 ✈ KTPA - KEWR

Flight Track Log - Related Links

Times and Time Zones

All times are in EDT time to prevent confusion due to time zone crossing. See the UAL1248 flight status page for this flight to view local times or setup timezone preferences in your user account.

Time Position Orientation Groundspeed Altitude Reporting Facility
EDT Latitude Longitude Course Direction KTS MPH feet Rate Location/Type
07:15AM 27.9990 -82.5280 359° North 181 208 700  Level FlightAware
07:16AM 28.0180 -82.5300 355° North 200 230 1,400 1,740 Climbing FlightAware
07:16AM 28.0410 -82.5310 358° North 225 259 2,000 1,800 Climbing FlightAware
07:16AM 28.0640 -82.5320 358° North 243 280 2,700 2,280 Climbing FlightAware
07:17AM 28.0900 -82.5340 356° North 260 299 3,600 2,400 Climbing FlightAware
07:17AM 28.1120 -82.5350 358° North 267 307 4,400 2,700 Climbing FlightAware
07:17AM 28.1400 -82.5380 355° North 277 319 5,400 3,000 Climbing FlightAware
07:18AM 28.1710 -82.5410 355° North 277 319 6,600 2,820 Climbing FlightAware
07:18AM 28.1940 -82.5440 353° North 284 327 7,400 2,700 Climbing FlightAware
07:18AM 28.2230 -82.5460 357° North 287 330 8,400 2,820 Climbing FlightAware
07:19AM 28.2500 -82.5480 356° North 287 330 9,400 2,220 Climbing FlightAware
07:19AM 28.2980 -82.5530 355° North 304 350 10,500 1,380 Climbing FlightAware
07:20AM 28.3510 -82.5580 355° North 339 390 11,100 1,320 Climbing FlightAware
07:21AM 28.4060 -82.5630 355° North 360 414 12,000 1,920 Climbing FlightAware
07:21AM 28.4620 -82.5690 355° North 362 417 13,300 2,040 Climbing FlightAware
07:22AM 28.5260 -82.5750 355° North 373 429 14,500 1,920 Climbing FlightAware
07:22AM 28.5900 -82.5810 355° North 381 438 15,700 1,920 Climbing FlightAware
07:23AM 28.6520 -82.5870 355° North 387 445 16,800 1,740 Climbing FlightAware
07:23AM 28.7100 -82.5940 354° North 394 453 17,700 1,980 Climbing FlightAware
07:24AM 28.7770 -82.6030 353° North 393 452 19,100 1,980 Climbing FlightAware
07:25AM 28.8430 -82.6130 352° North 395 455 20,200 1,680 Climbing FlightAware
07:25AM 28.9020 -82.6210 353° North 400 460 21,100 1,560 Climbing FlightAware
07:26AM 28.9670 -82.6300 353° North 407 468 22,000 1,380 Climbing FlightAware
07:26AM 29.0380 -82.6400 353° North 414 476 22,800 1,200 Climbing FlightAware
07:27AM 29.1070 -82.6500 353° North 423 487 23,500 1,080 Climbing FlightAware
07:28AM 29.1720 -82.6590 353° North 433 498 24,100 1,020 Climbing FlightAware
07:28AM 29.2390 -82.6680 353° North 440 506 24,700 1,080 Climbing FlightAware
07:29AM 29.3130 -82.6790 353° North 445 512 25,400 1,320 Climbing FlightAware
07:29AM 29.3800 -82.6880 353° North 447 514 26,200 1,260 Climbing FlightAware
07:30AM 29.4780 -82.6930 357° North 453 521 27,200 1,140 Climbing FlightAware
07:31AM 29.5700 -82.6920 North 459 528 28,000 1,020 Climbing FlightAware
07:31AM 29.6354 -82.6920 360° North 464 534 28,500 840 Climbing FlightAware ADS-B (KMCO)
07:32AM 29.7236 -82.6914 360° North 470 541 29,100 1,020 Climbing FlightAware ADS-B (KMCO)
07:33AM 29.8433 -82.6906 360° North 472 543 30,100 1,140 Climbing FlightAware ADS-B (KMCO)
07:34AM 29.9430 -82.6900 360° North 469 540 31,000 1,200 Climbing FlightAware
07:34AM 30.0439 -82.6895 360° North 465 535 32,000 1,260 Climbing FlightAware ADS-B (KMCO)
07:35AM 30.1260 -82.6890 360° North 462 532 32,800 1,140 Climbing FlightAware
07:36AM 30.2070 -82.6880 North 458 527 33,500 1,020 Climbing FlightAware
07:36AM 30.2950 -82.6880 360° North 456 525 34,200 1,080 Climbing FlightAware
07:37AM 30.3364 -82.6876 360° North 454 522 34,600 540 Climbing FlightAware ADS-B (KMCO)
07:38AM 30.4810 -82.6850 North 457 526 35,000 240 Climbing FlightAware
07:38AM 30.5205 -82.6773 North 464 534 35,000  Level FlightAware ADS-B (KMCO)
07:39AM 30.6200 -82.6330 21° North 469 540 35,000  Level FlightAware
07:40AM 30.6890 -82.5990 23° Northeast 468 539 35,000  Level FlightAware
07:40AM 30.7590 -82.5640 23° Northeast 469 540 35,000  Level FlightAware
07:41AM 30.8320 -82.5280 23° Northeast 469 540 35,000  Level FlightAware
07:41AM 30.8900 -82.5000 23° Northeast 470 541 35,000  Level FlightAware
07:42AM 30.9680 -82.4610 23° Northeast 469 540 35,000  Level FlightAware
07:43AM 31.0440 -82.4240 23° Northeast 468 539 35,000  Level FlightAware
07:43AM 31.1040 -82.3950 22° Northeast 470 541 35,000  Level FlightAware
07:44AM 31.1680 -82.3640 23° Northeast 470 541 35,000  Level FlightAware
07:44AM 31.2620 -82.3190 22° Northeast 470 541 35,000  Level FlightAware
07:45AM 31.3300 -82.2800 26° Northeast 474 545 35,000  Level FlightAware
07:45AM 31.3990 -82.2390 27° Northeast 474 545 35,000  Level FlightAware
07:46AM 31.4750 -82.1950 26° Northeast 474 545 35,000  Level FlightAware
07:47AM 31.5400 -82.1570 26° Northeast 474 545 35,000  Level FlightAware
07:47AM 31.6080 -82.1170 27° Northeast 474 545 35,000  Level FlightAware
07:48AM 31.6900 -82.0690 26° Northeast 474 545 35,000  Level FlightAware
07:49AM 31.7610 -82.0270 27° Northeast 475 547 35,000  Level FlightAware
07:49AM 31.8310 -81.9860 26° Northeast 476 548 35,000  Level FlightAware
07:50AM 31.8990 -81.9460 27° Northeast 477 549 35,000  Level FlightAware
07:50AM 31.9690 -81.9040 27° Northeast 478 550 35,000  Level FlightAware
07:51AM 32.0320 -81.8670 26° Northeast 477 549 35,000  Level FlightAware
07:51AM 32.1030 -81.8250 27° Northeast 476 548 35,000  Level FlightAware
07:52AM 32.1700 -81.7850 27° Northeast 477 549 35,000  Level FlightAware
07:53AM 32.2470 -81.7390 27° Northeast 476 548 35,000  Level FlightAware
07:53AM 32.3120 -81.7010 26° Northeast 476 548 35,000  Level FlightAware
07:54AM 32.3760 -81.6630 27° Northeast 476 548 35,000  Level FlightAware
07:54AM 32.4530 -81.6160 27° Northeast 476 548 35,000  Level FlightAware
07:55AM 32.5250 -81.5740 26° Northeast 476 548 35,000  Level FlightAware
07:56AM 32.5890 -81.5350 27° Northeast 477 549 35,000  Level FlightAware
07:56AM 32.6580 -81.4890 29° Northeast 480 552 35,000  Level FlightAware
07:57AM 32.7170 -81.4470 31° Northeast 480 552 35,000  Level FlightAware
07:57AM 32.7840 -81.3990 31° Northeast 479 551 35,000  Level FlightAware
07:58AM 32.8570 -81.3480 30° Northeast 478 550 35,000  Level FlightAware
07:58AM 32.9250 -81.3010 30° Northeast 478 550 35,000  Level FlightAware
07:59AM 32.9930 -81.2520 31° Northeast 478 550 35,000  Level FlightAware
08:00AM 33.0530 -81.2110 30° Northeast 478 550 35,000  Level FlightAware
08:00AM 33.1100 -81.1700 31° Northeast 478 550 35,000  Level FlightAware
08:01AM 33.1750 -81.1240 31° Northeast 478 550 35,000  Level FlightAware
08:01AM 33.2470 -81.0730 31° Northeast 479 551 35,000  Level FlightAware
08:02AM 33.3160 -81.0240 31° Northeast 480 552 35,000  Level FlightAware
08:02AM 33.3820 -80.9760 31° Northeast 481 554 35,000  Level FlightAware
08:03AM 33.4450 -80.9310 31° Northeast 481 554 35,000  Level FlightAware
08:04AM 33.5110 -80.8840 31° Northeast 483 556 35,000  Level FlightAware
08:04AM 33.5830 -80.8330 31° Northeast 483 556 35,000  Level FlightAware
08:05AM 33.6450 -80.7870 32° Northeast 483 556 35,000  Level FlightAware
08:05AM 33.7160 -80.7370 30° Northeast 484 557 35,000  Level FlightAware
08:06AM 33.7850 -80.6870 31° Northeast 485 558 35,000  Level FlightAware
08:07AM 33.8490 -80.6410 31° Northeast 485 558 35,000  Level FlightAware
08:07AM 33.9150 -80.5920 32° Northeast 486 559 35,000  Level FlightAware
08:08AM 33.9850 -80.5420 31° Northeast 485 558 35,000  Level FlightAware
08:08AM 34.0490 -80.4950 31° Northeast 486 559 35,000  Level FlightAware
08:09AM 34.1160 -80.4460 31° Northeast 486 559 35,000  Level FlightAware
08:09AM 34.1860 -80.3950 31° Northeast 486 559 35,000  Level FlightAware
08:10AM 34.2570 -80.3440 31° Northeast 486 559 35,000  Level FlightAware
08:10AM 34.3030 -80.3100 31° Northeast 486 559 35,000  Level FlightAware
08:11AM 34.3240 -80.2940 32° Northeast 486 559 35,000  Level FlightAware
08:12AM 34.4430 -80.2070 31° Northeast 486 559 35,000  Level FlightAware
08:12AM 34.5360 -80.1380 31° Northeast 485 558 35,000  Level FlightAware
08:13AM 34.6190 -80.0770 31° Northeast 485 558 35,000  Level FlightAware
08:14AM 34.7200 -80.0020 31° Northeast 485 558 35,000  Level FlightAware
08:15AM 34.8250 -79.9240 31° Northeast 488 562 35,000  Level FlightAware
08:16AM 34.8890 -79.8760 32° Northeast 488 562 35,000  Level FlightAware
08:16AM 34.9470 -79.8310 32° Northeast 488 562 35,000  Level FlightAware
08:17AM 35.0060 -79.7860 32° Northeast 488 562 35,000  Level FlightAware
08:18AM 35.0660 -79.7400 32° Northeast 488 562 35,000  Level FlightAware
08:18AM 35.1810 -79.6580 30° Northeast 492 566 35,000  Level FlightAware
08:19AM 35.2670 -79.5930 32° Northeast 492 566 35,000  Level FlightAware
08:19AM 35.3330 -79.5430 32° Northeast 492 566 35,000  Level FlightAware
08:20AM 35.4090 -79.4860 31° Northeast 493 567 35,000  Level FlightAware
08:21AM 35.4660 -79.4430 32° Northeast 493 567 35,000  Level FlightAware
08:21AM 35.5490 -79.3790 32° Northeast 494 568 35,000  Level FlightAware
08:22AM 35.6030 -79.3390 31° Northeast 494 568 35,000  Level FlightAware
08:22AM 35.6780 -79.2820 32° Northeast 493 567 35,000  Level FlightAware
08:23AM 35.7460 -79.2290 32° Northeast 492 566 35,000  Level FlightAware
08:24AM 35.8140 -79.1770 32° Northeast 490 564 35,000  Level FlightAware
08:24AM 35.8810 -79.1260 32° Northeast 489 563 35,000  Level FlightAware
08:25AM 35.9470 -79.0750 32° Northeast 489 563 35,000  Level FlightAware
08:25AM 36.0140 -79.0230 32° Northeast 481 554 35,000  Level FlightAware
08:26AM 36.0730 -78.9780 32° Northeast 482 555 35,000  Level FlightAware
08:26AM 36.1480 -78.9200 32° Northeast 481 554 35,000  Level FlightAware
08:27AM 36.2150 -78.8680 32° Northeast 479 551 35,000  Level FlightAware
08:28AM 36.2830 -78.8160 32° Northeast 479 551 35,000  Level FlightAware
08:28AM 36.3490 -78.7640 32° Northeast 479 551 35,000  Level FlightAware
08:29AM 36.4270 -78.7030 32° Northeast 484 557 35,000  Level FlightAware
08:29AM 36.4870 -78.6560 32° Northeast 483 556 35,000  Level FlightAware
08:30AM 36.5580 -78.6010 32° Northeast 484 557 35,000  Level FlightAware
08:31AM 36.6340 -78.5410 32° Northeast 484 557 35,000  Level FlightAware
08:31AM 36.7120 -78.4800 32° Northeast 486 559 35,000  Level FlightAware
08:32AM 36.7950 -78.4140 32° Northeast 481 554 35,000  Level FlightAware
08:33AM 36.8570 -78.3640 33° Northeast 481 554 35,000  Level FlightAware
08:33AM 36.9140 -78.3170 33° Northeast 481 554 35,000  Level FlightAware
08:34AM 36.9710 -78.2710 33° Northeast 481 554 35,000  Level FlightAware
08:35AM 37.0300 -78.2230 33° Northeast 481 554 35,000  Level FlightAware
08:35AM 37.0890 -78.1760 32° Northeast 481 554 35,000  Level FlightAware
08:36AM 37.2110 -78.0840 31° Northeast 478 550 35,000  Level FlightAware
08:36AM 37.2790 -78.0290 33° Northeast 479 551 35,000  Level FlightAware
08:37AM 37.3560 -77.9670 33° Northeast 487 560 35,000  Level FlightAware
08:38AM 37.4170 -77.9180 33° Northeast 487 560 35,000  Level FlightAware
08:38AM 37.4840 -77.8640 33° Northeast 487 560 35,000  Level FlightAware
08:39AM 37.5480 -77.8100 34° Northeast 491 565 35,000  Level FlightAware
08:39AM 37.6160 -77.7490 35° Northeast 492 566 35,000  Level FlightAware
08:40AM 37.6800 -77.6910 36° Northeast 494 568 35,000  Level FlightAware
08:41AM 37.7500 -77.6280 35° Northeast 492 566 35,000  Level FlightAware
08:41AM 37.8090 -77.5740 36° Northeast 492 566 35,000  Level FlightAware
08:42AM 37.8760 -77.5130 36° Northeast 491 565 35,000  Level FlightAware
08:42AM 37.9410 -77.4540 36° Northeast 490 564 35,000  Level FlightAware
08:43AM 38.0000 -77.3990 36° Northeast 490 564 35,000  Level FlightAware
08:43AM 38.0660 -77.3390 36° Northeast 489 563 35,000  Level FlightAware
08:44AM 38.1320 -77.2780 36° Northeast 488 562 35,000  Level FlightAware
08:45AM 38.1940 -77.2210 36° Northeast 486 559 35,000  Level FlightAware
08:45AM 38.2590 -77.1610 36° Northeast 485 558 35,000  Level FlightAware
08:46AM 38.3210 -77.1030 36° Northeast 485 558 35,000  Level FlightAware
08:46AM 38.3910 -77.0390 36° Northeast 485 558 35,000  Level FlightAware
08:47AM 38.4470 -76.9870 36° Northeast 485 558 35,000  Level FlightAware
08:47AM 38.5090 -76.9290 36° Northeast 485 558 35,000  Level FlightAware
08:48AM 38.5780 -76.8650 36° Northeast 487 560 35,000  Level FlightAware
08:49AM 38.6360 -76.8110 36° Northeast 487 560 35,000  Level FlightAware
08:49AM 38.7050 -76.7450 37° Northeast 491 565 35,000  Level FlightAware
08:50AM 38.7610 -76.6820 41° Northeast 496 571 35,000  Level FlightAware
08:50AM 38.8210 -76.6120 42° Northeast 497 572 35,000  Level FlightAware
08:51AM 38.8820 -76.5410 42° Northeast 499 574 35,000 -120 Level FlightAware
08:52AM 38.9380 -76.4760 42° Northeast 496 571 34,900 -1,860 Descending FlightAware
08:52AM 39.0030 -76.4010 42° Northeast 505 581 32,900 -2,940 Descending FlightAware
08:53AM 39.0660 -76.3280 42° Northeast 506 582 31,300 -2,520 Descending FlightAware
08:53AM 39.1240 -76.2600 42° Northeast 502 578 30,000 -2,340 Descending FlightAware
08:54AM 39.1850 -76.1900 42° Northeast 496 571 28,600 -2,280 Descending FlightAware
08:55AM 39.2460 -76.1180 42° Northeast 489 563 27,300 -1,500 Descending FlightAware
08:55AM 39.2935 -76.0624 42° Northeast 479 551 27,000 -660 Descending FlightAware ADS-B
08:56AM 39.3200 -76.0316 42° Northeast 476 548 26,600 -840 Descending FlightAware ADS-B
08:56AM 39.4070 -75.9291 42° Northeast 470 541 26,100 -1,020 Descending FlightAware ADS-B
08:57AM 39.4612 -75.8647 42° Northeast 467 537 25,500 -1,080 Descending FlightAware ADS-B
08:57AM 39.5250 -75.7900 42° Northeast 461 531 24,800 -1,200 Descending FlightAware
08:58AM 39.5780 -75.7260 43° Northeast 446 513 24,000 -2,100 Descending FlightAware
08:59AM 39.6340 -75.6600 42° Northeast 447 514 22,400 -2,580 Descending FlightAware
08:59AM 39.6830 -75.6010 43° Northeast 445 512 21,100 -2,760 Descending FlightAware
08:59AM 39.7242 -75.5516 43° Northeast 440 506 20,100 -2,400 Descending FlightAware ADS-B (KOQN)
09:00AM 39.7697 -75.4966 43° Northeast 431 496 19,200 -1,860 Descending FlightAware ADS-B (KOQN)
09:00AM 39.8137 -75.4435 43° Northeast 425 489 18,200 -1,980 Descending FlightAware ADS-B (KOQN)
09:01AM 39.8714 -75.3740 43° Northeast 414 476 16,900 -1,920 Descending FlightAware ADS-B (KOQN)
09:02AM 39.9220 -75.3126 43° Northeast 405 466 15,700 -1,920 Descending FlightAware ADS-B (KOQN)
09:02AM 39.9769 -75.2457 43° Northeast 398 458 14,500 -1,620 Descending FlightAware ADS-B (KOQN)
09:03AM 40.0300 -75.1810 43° Northeast 389 448 13,300 -1,680 Descending FlightAware
09:04AM 40.0790 -75.1220 43° Northeast 381 438 12,100 -1,860 Descending FlightAware
09:04AM 40.1200 -75.0720 43° Northeast 372 428 11,200 -1,680 Descending FlightAware
09:05AM 40.1590 -75.0240 43° Northeast 363 418 10,300 -960 Descending FlightAware
09:06AM 40.2110 -74.9600 43° Northeast 323 372 10,000 -660 Descending FlightAware
09:06AM 40.2390 -74.9250 44° Northeast 311 358 9,500 -1,440 Descending FlightAware
09:06AM 40.2560 -74.9040 43° Northeast 311 358 9,000 -1,920 Descending FlightAware
09:07AM 40.2850 -74.8640 46° Northeast 314 361 8,100 -1,260 Descending FlightAware
09:07AM 40.3030 -74.8380 48° Northeast 302 348 8,000 -600 Descending FlightAware
09:08AM 40.3240 -74.8080 47° Northeast 299 344 7,700 -900 Descending FlightAware
09:08AM 40.3400 -74.7850 48° Northeast 299 344 7,400 -1,080 Descending FlightAware
09:08AM 40.3610 -74.7560 46° Northeast 298 343 7,000 -1,140 Descending FlightAware
09:09AM 40.3830 -74.7250 47° Northeast 295 339 6,600 -1,080 Descending FlightAware
09:09AM 40.4040 -74.6960 46° Northeast 294 338 6,200 -900 Descending FlightAware
09:09AM 40.4240 -74.6740 40° Northeast 283 326 6,000 -420 Descending FlightAware
09:10AM 40.4400 -74.6670 18° North 278 320 6,000  Level FlightAware
09:10AM 40.4650 -74.6600 12° North 278 320 6,000  Level FlightAware
09:10AM 40.4910 -74.6530 12° North 279 321 6,000  Level FlightAware
09:10AM 40.5110 -74.6480 11° North 279 321 6,000  Level FlightAware
09:11AM 40.5370 -74.6410 12° North 278 320 6,000  Level FlightAware
09:11AM 40.5630 -74.6340 12° North 278 320 6,000  Level FlightAware
09:11AM 40.5710 -74.6320 11° North 278 320 6,000  Level FlightAware
09:12AM 40.6200 -74.6190 11° North 278 320 6,000  Level FlightAware
09:12AM 40.6540 -74.6090 13° North 277 319 6,000  Level FlightAware
09:13AM 40.6680 -74.6060 North 277 319 6,000  Level FlightAware
09:13AM 40.6970 -74.5980 12° North 280 322 6,000  Level FlightAware
09:13AM 40.7362 -74.5875 11° North 283 326 6,000  Level FlightAware ADS-B
09:14AM 40.8057 -74.5691 11° North 283 326 6,000  Level FlightAware ADS-B
09:15AM 40.8251 -74.5639 11° North 284 327 6,000  Level FlightAware ADS-B
09:15AM 40.8750 -74.5510 11° North 285 328 6,000  Level FlightAware
09:15AM 40.8940 -74.5440 16° North 296 341 6,000 -480 Level FlightAware
09:16AM 40.9068 -74.5327 34° Northeast 285 328 5,800 -1,020 Descending FlightAware ADS-B
09:16AM 40.9138 -74.5215 50° Northeast 298 343 5,700 -1,140 Descending FlightAware ADS-B
09:16AM 40.9160 -74.5165 60° Northeast 298 343 5,600 -1,740 Descending FlightAware ADS-B
09:16AM 40.9183 -74.5102 64° Northeast 297 342 5,500 -1,140 Descending FlightAware ADS-B
09:16AM 40.9223 -74.4978 67° East 297 342 5,400 -660 Descending FlightAware ADS-B
09:17AM 40.9400 -74.4340 70° East 283 326 5,000 -420 Descending FlightAware
09:17AM 40.9410 -74.3970 88° East 283 326 5,000  Level FlightAware
09:17AM 40.9420 -74.3630 88° East 281 323 5,000  Level FlightAware
09:18AM 40.9430 -74.3320 88° East 286 329 5,000 -480 Level FlightAware
09:18AM 40.9443 -74.2959 87° East 288 331 4,700 -840 Descending FlightAware ADS-B
09:18AM 40.9450 -74.2696 88° East 285 328 4,500 -1,020 Descending FlightAware ADS-B
09:18AM 40.9457 -74.2427 88° East 282 325 4,200 -540 Descending FlightAware ADS-B
09:19AM 40.9349 -74.1741 102° East 275 316 4,000 -300 Descending FlightAware ADS-B
09:19AM 40.9319 -74.1700 134° Southeast 248 285 4,000  Level FlightAware ADS-B
09:19AM 40.9264 -74.1634 138° Southeast 235 270 4,000  Level FlightAware ADS-B
09:20AM 40.9130 -74.1465 136° Southeast 222 255 4,000  Level FlightAware ADS-B
09:20AM 40.9020 -74.1323 136° Southeast 215 247 4,000 -240 Level FlightAware ADS-B
09:20AM 40.8927 -74.1198 135° Southeast 204 235 3,900 -420 Descending FlightAware ADS-B
09:20AM 40.8828 -74.1065 135° Southeast 194 223 3,800 -840 Descending FlightAware ADS-B
09:21AM 40.8740 -74.0947 135° Southeast 192 221 3,500 -1,500 Descending FlightAware ADS-B
09:21AM 40.8643 -74.0822 136° Southeast 194 223 3,100 -1,440 Descending FlightAware ADS-B
09:21AM 40.8604 -74.0778 140° Southeast 199 229 3,000 -1,380 Descending FlightAware ADS-B
09:21AM 40.8581 -74.0760 149° Southeast 200 230 2,900 -1,740 Descending FlightAware ADS-B
09:21AM 40.8548 -74.0742 158° South 201 231 2,800 -1,500 Descending FlightAware ADS-B
09:21AM 40.8515 -74.0731 166° South 200 230 2,700 -1,500 Descending FlightAware ADS-B
09:21AM 40.8478 -74.0729 178° South 199 229 2,600 -780 Descending FlightAware ADS-B
09:21AM 40.8446 -74.0734 187° South 192 221 2,600 -420 Level FlightAware ADS-B
09:22AM 40.8348 -74.0760 191° South 185 213 2,500 -420 Descending FlightAware ADS-B
09:22AM 40.8308 -74.0776 197° South 183 211 2,500  Level FlightAware ADS-B
09:22AM 40.8284 -74.0787 199° South 182 209 2,500  Level FlightAware ADS-B
09:22AM 40.8246 -74.0807 202° Southwest 179 206 2,500  Level FlightAware ADS-B
09:22AM 40.8186 -74.0844 205° Southwest 179 206 2,500 -660 Level FlightAware ADS-B
09:22AM 40.7957 -74.0992 206° Southwest 176 203 2,100 -780 Descending FlightAware ADS-B
09:23AM 40.7890 -74.1034 205° Southwest 173 199 2,000 -900 Descending FlightAware ADS-B
09:23AM 40.7806 -74.1087 206° Southwest 171 197 1,800 -780 Descending FlightAware ADS-B
09:23AM 40.7719 -74.1143 206° Southwest 166 191 1,700 -900 Descending FlightAware ADS-B
09:23AM 40.7615 -74.1207 205° Southwest 157 181 1,400 -960 Descending FlightAware ADS-B
09:23AM 40.7515 -74.1272 206° Southwest 149 171 1,200 -780 Descending FlightAware ADS-B
09:24AM 40.7417 -74.1334 206° Southwest 146 168 1,000 -840 Descending FlightAware ADS-B
09:24AM 40.7293 -74.1415 206° Southwest 147 169 700 -360 Descending FlightAware ADS-B
09:25AM 40.7130 -74.1510 204° Southwest 146 168 700 -840 Level FlightAware
09:25AM 40.7021 -74.1587 208° Southwest 147 169 100 -3,000 Descending FlightAware ADS-B